Time;durP1;ratioP1;P1;durP2;ratioP2;P2;SDS_P1;SDS_P2;PMS_P1;PMS_P2;Temp;Humidity;BMP_temperature;BMP_pressure;BME280_temperature;BME280_humidity;BME280_pressure;Samples;Min_cycle;Max_cycle;Signal;HPM_P1;HPM_P2
2022/11/13 00:00:48;;;;;;;8.93;8.03;;;;;;;4.69;91.33;102163.16;5028486;28;20205;-76
2022/11/13 00:03:14;;;;;;;9.10;8.20;;;;;;;4.64;91.35;102157.09;5021103;28;20207;-76
2022/11/13 00:05:41;;;;;;;9.83;8.67;;;;;;;4.62;91.43;102153.59;5022398;28;20349;-75
2022/11/13 00:08:07;;;;;;;8.57;7.67;;;;;;;4.59;91.44;102151.00;5024497;28;20241;-74
2022/11/13 00:10:34;;;;;;;16.00;10.93;;;;;;;4.60;91.71;102154.53;5028960;28;20202;-75
2022/11/13 00:13:00;;;;;;;11.13;9.17;;;;;;;4.58;91.57;102154.53;5028804;28;20229;-76
2022/11/13 00:15:28;;;;;;;9.60;8.50;;;;;;;4.54;91.31;102153.72;5033018;28;20229;-75
2022/11/13 00:17:54;;;;;;;10.03;8.63;;;;;;;4.51;91.29;102153.75;5025862;28;20209;-75
2022/11/13 00:20:21;;;;;;;9.00;8.10;;;;;;;4.49;91.36;102154.66;5027030;28;20691;-74
2022/11/13 00:22:47;;;;;;;10.70;9.47;;;;;;;4.48;91.43;102145.00;5029190;28;20532;-75
2022/11/13 00:25:14;;;;;;;10.57;9.03;;;;;;;4.47;91.84;102145.91;5021667;28;20218;-75
2022/11/13 00:27:40;;;;;;;11.17;9.30;;;;;;;4.45;92.00;102147.69;5022417;28;20568;-75
2022/11/13 00:30:08;;;;;;;10.73;9.47;;;;;;;4.44;91.39;102148.59;5020502;28;20199;-75
2022/11/13 00:32:36;;;;;;;11.40;10.03;;;;;;;4.44;91.75;102145.97;5024773;28;20198;-75
2022/11/13 00:35:05;;;;;;;14.47;10.20;;;;;;;4.43;91.84;102145.09;5026931;28;20206;-73
2022/11/13 00:37:31;;;;;;;10.63;9.03;;;;;;;4.44;92.41;102143.31;5024701;28;20207;-75
2022/11/13 00:39:57;;;;;;;10.67;9.47;;;;;;;4.43;92.48;102137.16;5018418;28;20202;-75
2022/11/13 00:42:24;;;;;;;12.97;9.93;;;;;;;4.41;92.39;102135.44;5018464;28;20213;-75
2022/11/13 00:44:50;;;;;;;11.00;9.60;;;;;;;4.39;92.62;102139.88;5023428;28;20218;-75
2022/11/13 00:47:17;;;;;;;12.63;9.37;;;;;;;4.37;92.34;102134.59;5018787;28;20214;-75
2022/11/13 00:49:45;;;;;;;11.63;9.03;;;;;;;4.35;92.61;102130.25;5016744;28;20207;-75
2022/11/13 00:52:11;;;;;;;11.13;9.93;;;;;;;4.37;92.19;102133.75;5026519;28;20202;-75
2022/11/13 00:54:37;;;;;;;9.40;7.87;;;;;;;4.34;92.36;102131.13;5019831;28;20201;-75
2022/11/13 00:57:04;;;;;;;12.63;7.70;;;;;;;4.25;91.73;102129.50;5016800;28;20222;-73
2022/11/13 00:59:30;;;;;;;8.90;8.00;;;;;;;4.17;90.92;102120.81;5024519;28;20206;-75
2022/11/13 01:01:57;;;;;;;9.67;8.10;;;;;;;4.11;91.16;102113.88;5022565;28;20278;-75
2022/11/13 01:04:23;;;;;;;9.40;8.37;;;;;;;4.08;91.64;102116.56;5019731;28;20210;-74
2022/11/13 01:06:51;;;;;;;9.77;8.50;;;;;;;4.07;91.94;102117.44;5084875;22;20309;-84
2022/11/13 01:09:18;;;;;;;11.07;8.83;;;;;;;4.06;91.38;102115.69;5101501;28;20235;-84
2022/11/13 01:11:44;;;;;;;9.57;8.23;;;;;;;4.06;92.08;102115.69;5099337;28;20232;-84
2022/11/13 01:14:11;;;;;;;10.77;8.07;;;;;;;4.05;92.23;102118.34;5098085;28;20212;-85
2022/11/13 01:16:37;;;;;;;8.80;7.83;;;;;;;4.02;91.26;102116.63;5100257;28;20196;-82
2022/11/13 01:19:03;;;;;;;12.00;8.40;;;;;;;3.99;91.97;102116.66;5089227;28;20193;-82
2022/11/13 01:21:30;;;;;;;9.03;7.90;;;;;;;3.98;91.69;102114.91;5092976;28;20227;-83
2022/11/13 01:23:58;;;;;;;10.83;7.50;;;;;;;3.96;92.20;102114.06;5087594;28;20211;-84
2022/11/13 01:26:26;;;;;;;9.23;8.10;;;;;;;3.96;91.76;102111.41;5109995;28;20214;-84
2022/11/13 01:28:55;;;;;;;10.63;8.13;;;;;;;3.94;92.28;102105.28;5094905;28;20232;-85
2022/11/13 01:31:24;;;;;;;10.33;8.50;;;;;;;3.91;91.63;102108.00;5105577;28;20219;-84
2022/11/13 01:33:51;;;;;;;9.17;8.27;;;;;;;3.87;91.45;102108.91;5096364;28;20712;-84
2022/11/13 01:36:20;;;;;;;9.67;8.47;;;;;;;3.85;91.60;102105.44;5096010;28;20213;-83
2022/11/13 01:38:47;;;;;;;9.13;8.23;;;;;;;3.83;91.68;102109.84;5088364;28;20203;-82
2022/11/13 01:41:19;;;;;;;11.10;7.90;;;;;;;3.82;92.06;102100.19;5087464;28;20224;-83
2022/11/13 01:43:46;;;;;;;11.63;8.53;;;;;;;3.80;91.45;102102.84;5090290;28;20230;-85
2022/11/13 01:46:28;;;;;;;8.87;7.97;;;;;;;3.79;91.94;102100.22;5104478;28;20208;-83
2022/11/13 01:49:00;;;;;;;9.30;8.00;;;;;;;3.78;91.81;102096.72;5086432;28;20220;-82
2022/11/13 01:51:32;;;;;;;10.93;8.80;;;;;;;3.76;92.03;102087.94;5091715;28;20235;-85
2022/11/13 01:54:02;;;;;;;9.23;7.57;;;;;;;3.75;91.71;102083.59;5094394;28;20208;-83
2022/11/13 01:56:30;;;;;;;12.63;8.90;;;;;;;3.73;92.36;102088.00;5097932;28;20199;-84
2022/11/13 01:59:01;;;;;;;10.20;8.50;;;;;;;3.73;92.52;102082.75;5100201;28;20199;-82
2022/11/13 02:01:28;;;;;;;8.97;8.07;;;;;;;3.75;92.83;102088.00;5087455;28;20212;-82
2022/11/13 02:03:54;;;;;;;10.20;8.43;;;;;;;3.73;92.54;102085.38;5090109;28;20196;-82
2022/11/13 02:06:21;;;;;;;9.37;8.00;;;;;;;3.73;92.64;102076.59;5088457;28;20593;-83
2022/11/13 02:08:50;;;;;;;8.13;7.37;;;;;;;3.72;92.80;102069.59;5090844;28;20220;-83
2022/11/13 02:11:17;;;;;;;8.70;7.70;;;;;;;3.70;92.47;102071.38;5085366;28;20249;-83
2022/11/13 02:13:46;;;;;;;7.97;7.17;;;;;;;3.71;92.92;102071.34;5088309;28;20210;-82
2022/11/13 02:16:13;;;;;;;9.23;7.47;;;;;;;3.69;92.39;102070.50;5090190;28;20604;-83
2022/11/13 02:18:41;;;;;;;10.73;7.60;;;;;;;3.68;92.28;102067.88;5090073;28;20200;-82
2022/11/13 02:21:21;;;;;;;9.57;6.70;;;;;;;3.68;92.77;102071.38;5097930;28;20219;-82
2022/11/13 02:23:54;;;;;;;9.17;8.00;;;;;;;3.68;92.47;102070.50;5096359;28;20200;-84
2022/11/13 02:26:23;;;;;;;8.33;6.80;;;;;;;3.66;93.01;102073.16;5090837;28;20208;-83
2022/11/13 02:28:50;;;;;;;9.90;8.47;;;;;;;3.64;92.12;102076.69;5095963;28;20235;-83
2022/11/13 02:31:16;;;;;;;9.00;7.77;;;;;;;3.60;92.59;102075.84;5092440;28;20221;-82
2022/11/13 02:33:43;;;;;;;8.77;7.63;;;;;;;3.59;91.99;102076.75;5087510;28;20215;-83
2022/11/13 02:36:11;;;;;;;10.33;7.40;;;;;;;3.58;92.40;102079.44;5092432;28;20205;-82
2022/11/13 02:38:40;;;;;;;8.77;7.30;;;;;;;3.57;92.06;102080.31;5098926;28;20210;-78
2022/11/13 02:41:06;;;;;;;9.30;7.97;;;;;;;3.55;92.22;102068.91;5100533;28;20238;-78
2022/11/13 02:43:34;;;;;;;10.13;7.40;;;;;;;3.54;92.83;102073.31;5099974;28;20203;-79
2022/11/13 02:46:01;;;;;;;8.20;7.20;;;;;;;3.52;92.48;102080.38;5096804;28;20214;-79
2022/11/13 02:48:27;;;;;;;8.43;7.20;;;;;;;3.49;92.58;102076.00;5099450;28;20774;-79
2022/11/13 02:50:54;;;;;;;7.23;6.40;;;;;;;3.46;91.92;102072.53;5102671;28;20732;-80
2022/11/13 02:53:20;;;;;;;9.07;7.00;;;;;;;3.41;91.84;102077.81;5099100;28;20222;-79
2022/11/13 02:55:47;;;;;;;7.77;6.97;;;;;;;3.37;91.78;102084.03;5099636;28;20204;-78
2022/11/13 02:58:13;;;;;;;7.67;6.73;;;;;;;3.33;91.88;102073.56;5097277;28;20631;-79
2022/11/13 03:00:41;;;;;;;8.47;6.90;;;;;;;3.28;92.07;102076.22;5108218;28;20667;-79
2022/11/13 03:03:07;;;;;;;6.83;6.13;;;;;;;3.27;92.32;102079.75;5094173;28;20203;-78
2022/11/13 03:05:34;;;;;;;8.57;7.03;;;;;;;3.25;92.52;102065.72;5102780;28;20218;-78
2022/11/13 03:08:00;;;;;;;7.67;6.90;;;;;;;3.23;92.12;102067.50;5093070;28;20197;-78
2022/11/13 03:10:27;;;;;;;9.50;6.50;;;;;;;3.22;91.81;102068.41;5107570;28;20310;-80
2022/11/13 03:12:53;;;;;;;8.50;6.27;;;;;;;3.18;92.00;102053.53;5097745;28;20208;-78
2022/11/13 03:15:20;;;;;;;6.87;6.17;;;;;;;3.15;91.74;102050.94;5101145;28;20208;-79
2022/11/13 03:17:47;;;;;;;6.50;5.90;;;;;;;3.15;92.51;102053.56;5094578;28;20200;-78
2022/11/13 03:20:14;;;;;;;7.60;6.80;;;;;;;3.11;92.17;102046.56;5097453;28;20225;-78
2022/11/13 03:22:40;;;;;;;6.80;5.93;;;;;;;3.07;92.56;102050.13;5100518;28;20205;-78
2022/11/13 03:25:08;;;;;;;7.90;6.03;;;;;;;3.03;92.55;102048.44;5100045;28;20200;-79
2022/11/13 03:27:34;;;;;;;7.13;6.30;;;;;;;3.01;91.83;102052.84;5104784;28;20265;-79
2022/11/13 03:30:01;;;;;;;6.70;6.00;;;;;;;2.98;92.25;102044.97;5105276;28;20235;-79
2022/11/13 03:32:27;;;;;;;6.67;5.97;;;;;;;2.97;92.63;102049.34;5093442;28;20294;-80
2022/11/13 03:34:55;;;;;;;8.23;6.17;;;;;;;2.95;92.84;102048.50;5096540;28;20196;-78
2022/11/13 03:37:21;;;;;;;6.90;6.20;;;;;;;2.95;92.30;102052.88;5097219;28;20197;-78
2022/11/13 03:39:48;;;;;;;8.30;6.73;;;;;;;2.94;92.44;102038.84;5098884;28;20196;-78
2022/11/13 03:42:14;;;;;;;7.57;6.03;;;;;;;2.96;93.37;102044.09;5097785;28;20204;-79
2022/11/13 03:44:41;;;;;;;7.83;6.97;;;;;;;2.95;92.75;102045.00;5105761;28;20212;-78
2022/11/13 03:47:07;;;;;;;6.97;6.27;;;;;;;2.97;92.76;102043.22;5098591;28;20204;-78
2022/11/13 03:49:34;;;;;;;8.30;6.33;;;;;;;2.97;93.29;102037.94;5104674;28;20231;-79
2022/11/13 03:52:01;;;;;;;7.80;6.50;;;;;;;2.97;93.25;102043.22;5103363;28;20230;-78
2022/11/13 03:54:28;;;;;;;8.57;5.87;;;;;;;2.95;93.41;102030.06;5097977;28;20206;-79
2022/11/13 03:56:54;;;;;;;6.83;6.13;;;;;;;2.94;93.26;102028.31;5096567;28;20210;-78
2022/11/13 03:59:21;;;;;;;7.77;6.37;;;;;;;2.87;92.72;102026.63;5097953;28;20203;-79
2022/11/13 04:01:47;;;;;;;8.20;6.10;;;;;;;2.79;92.81;102034.59;5095177;28;20702;-78
2022/11/13 04:04:14;;;;;;;7.17;6.30;;;;;;;2.74;92.68;102025.00;5103602;28;20568;-78
2022/11/13 04:06:41;;;;;;;8.83;6.17;;;;;;;2.72;92.43;102032.91;5097594;28;20306;-79
2022/11/13 04:09:10;;;;;;;6.77;5.70;;;;;;;2.69;92.96;102027.66;5099951;28;20808;-79
2022/11/13 04:11:36;;;;;;;7.67;5.50;;;;;;;2.69;93.22;102025.03;5089193;28;20220;-79
2022/11/13 04:14:02;;;;;;;5.90;5.30;;;;;;;2.70;92.63;102023.28;5088369;28;20560;-79
2022/11/13 04:16:29;;;;;;;8.73;5.83;;;;;;;2.70;93.13;102024.16;5099920;28;20204;-79
2022/11/13 04:18:55;;;;;;;6.63;5.97;;;;;;;2.69;93.45;102026.78;5093657;28;20200;-79
2022/11/13 04:21:22;;;;;;;7.27;5.53;;;;;;;2.68;93.11;102023.31;5100983;28;20220;-79
2022/11/13 04:23:48;;;;;;;7.03;5.20;;;;;;;2.68;93.07;102012.81;5097115;28;20196;-78
2022/11/13 04:26:16;;;;;;;6.80;5.80;;;;;;;2.67;93.93;102021.59;5097566;28;20572;-79
2022/11/13 04:28:43;;;;;;;8.80;6.80;;;;;;;2.67;93.75;102010.19;5101672;28;20241;-79
2022/11/13 04:31:09;;;;;;;9.13;6.57;;;;;;;2.68;94.17;102011.94;5095237;28;20599;-79
2022/11/13 04:33:36;;;;;;;7.70;6.40;;;;;;;2.67;94.36;102005.78;5094345;28;20762;-78
2022/11/13 04:36:02;;;;;;;8.30;6.47;;;;;;;2.68;94.61;102009.31;5093984;28;20208;-78
2022/11/13 04:38:29;;;;;;;8.33;6.60;;;;;;;2.68;94.81;102004.91;5091761;28;20206;-78
2022/11/13 04:43:37;;;;;;;7.73;5.53;;;;;;;2.65;94.67;102004.94;5090182;28;20791;-78
2022/11/13 04:46:04;;;;;;;5.83;5.23;;;;;;;2.65;94.38;101998.81;5096451;28;20211;-78
2022/11/13 04:48:30;;;;;;;7.80;6.50;;;;;;;2.65;94.80;101998.81;5083798;28;20200;-79
2022/11/13 04:50:57;;;;;;;9.60;6.57;;;;;;;2.62;94.51;101994.44;5091958;28;20230;-79
2022/11/13 04:53:23;;;;;;;8.30;6.07;;;;;;;2.62;95.17;102004.09;5094717;28;20204;-79
2022/11/13 04:55:51;;;;;;;8.83;6.50;;;;;;;2.61;95.28;101997.09;5099320;28;20215;-79
2022/11/13 04:58:18;;;;;;;8.77;5.90;;;;;;;2.59;94.54;101993.59;5096911;28;20209;-79
2022/11/13 05:00:46;;;;;;;7.50;6.40;;;;;;;2.58;94.94;101997.09;5095641;28;21508;-78
2022/11/13 05:03:12;;;;;;;7.20;5.77;;;;;;;2.55;94.90;101986.59;5088530;28;20238;-79
2022/11/13 05:05:39;;;;;;;7.47;5.77;;;;;;;2.53;95.05;101986.63;5100665;28;20208;-79
2022/11/13 05:08:05;;;;;;;7.53;5.80;;;;;;;2.53;95.25;101984.00;5092868;28;20204;-79
2022/11/13 05:10:31;;;;;;;6.90;5.83;;;;;;;2.51;94.72;101991.00;5092241;28;20792;-79
2022/11/13 05:12:58;;;;;;;6.27;5.47;;;;;;;2.50;95.26;101981.41;5103067;28;20204;-78
2022/11/13 05:15:25;;;;;;;6.53;5.47;;;;;;;2.49;95.40;101987.56;5094276;28;20285;-79
2022/11/13 05:17:53;;;;;;;6.13;5.10;;;;;;;2.48;95.37;101980.56;5091772;28;20554;-79
2022/11/13 05:20:20;;;;;;;6.10;5.43;;;;;;;2.47;95.00;101972.66;5098857;28;20634;-79
2022/11/13 05:22:46;;;;;;;8.00;5.70;;;;;;;2.44;95.30;101971.81;5099009;28;20705;-79
2022/11/13 05:25:13;;;;;;;6.47;5.40;;;;;;;2.43;95.33;101974.44;5091567;28;20237;-79
2022/11/13 05:27:39;;;;;;;6.63;5.90;;;;;;;2.43;94.67;101974.44;5097206;28;20762;-79
2022/11/13 05:30:07;;;;;;;8.10;5.77;;;;;;;2.41;95.36;101968.31;5092191;28;20706;-79
2022/11/13 05:32:34;;;;;;;6.87;5.40;;;;;;;2.41;94.69;101970.97;5098431;28;20204;-78
2022/11/13 05:35:02;;;;;;;7.00;5.73;;;;;;;2.39;94.58;101962.22;5103827;28;20294;-79
2022/11/13 05:37:29;;;;;;;6.83;5.13;;;;;;;2.36;94.87;101964.84;5094087;28;20652;-79
2022/11/13 05:39:55;;;;;;;5.60;5.00;;;;;;;2.34;95.18;101961.38;5103790;28;20284;-79
2022/11/13 05:42:22;;;;;;;5.67;4.93;;;;;;;2.32;94.70;101969.28;5087354;28;20205;-79
2022/11/13 05:44:48;;;;;;;5.07;4.57;;;;;;;2.30;94.71;101965.81;5085672;28;20196;-78
2022/11/13 05:47:15;;;;;;;5.77;5.17;;;;;;;2.29;94.93;101968.44;5091182;28;20208;-78
2022/11/13 05:49:41;;;;;;;6.33;4.63;;;;;;;2.28;95.51;101966.69;5092418;28;20231;-79
2022/11/13 05:52:09;;;;;;;6.70;5.73;;;;;;;2.27;94.83;101967.56;5093581;28;20228;-79
2022/11/13 05:54:35;;;;;;;5.80;5.30;;;;;;;2.26;95.80;101952.69;5096118;28;20204;-79
2022/11/13 05:57:02;;;;;;;8.07;5.73;;;;;;;2.26;95.43;101952.69;5082257;28;20300;-80
2022/11/13 05:59:28;;;;;;;7.20;5.90;;;;;;;2.24;95.33;101955.34;5099976;28;20582;-79
2022/11/13 06:01:55;;;;;;;5.10;4.60;;;;;;;2.23;95.46;101948.31;5090031;28;20235;-79
2022/11/13 06:04:21;;;;;;;7.60;5.17;;;;;;;2.22;95.28;101945.72;5098039;28;20212;-79
2022/11/13 06:06:48;;;;;;;5.90;4.93;;;;;;;2.20;95.60;101942.22;5092911;28;20298;-79
2022/11/13 06:09:17;;;;;;;7.53;5.00;;;;;;;2.18;94.95;101939.59;5093833;28;20232;-79
2022/11/13 06:11:43;;;;;;;6.73;5.40;;;;;;;2.17;95.85;101944.88;5084583;28;20675;-79
2022/11/13 06:14:10;;;;;;;8.13;5.40;;;;;;;2.16;95.63;101937.88;5094734;28;20212;-79
2022/11/13 06:16:38;;;;;;;6.00;4.60;;;;;;;2.13;94.97;101930.91;5100209;28;20672;-79
2022/11/13 06:19:06;;;;;;;6.50;4.47;;;;;;;2.14;95.78;101934.41;5098132;28;20204;-79
2022/11/13 06:21:34;;;;;;;6.33;5.10;;;;;;;2.14;95.53;101931.78;5098778;28;20254;-79
2022/11/13 06:24:02;;;;;;;6.50;4.77;;;;;;;2.14;95.51;101927.41;5095357;28;20802;-78
2022/11/13 06:26:31;;;;;;;6.37;4.83;;;;;;;2.15;95.48;101917.75;5101293;28;20210;-79
2022/11/13 06:28:58;;;;;;;5.23;4.73;;;;;;;2.15;95.77;101917.75;5097929;28;20294;-79
2022/11/13 06:31:26;;;;;;;7.47;4.90;;;;;;;2.14;95.85;101919.50;5096362;28;20231;-78
2022/11/13 06:33:53;;;;;;;5.10;4.60;;;;;;;2.15;95.99;101918.59;5096968;28;20211;-78
2022/11/13 06:36:22;;;;;;;7.03;4.90;;;;;;;2.16;95.54;101922.09;5098249;28;20196;-78
2022/11/13 06:38:49;;;;;;;5.90;5.30;;;;;;;2.15;95.38;101920.38;5084924;28;21445;-78
2022/11/13 06:41:21;;;;;;;7.30;5.57;;;;;;;2.14;95.48;101921.25;5087250;28;20216;-78
2022/11/13 06:43:49;;;;;;;6.97;4.70;;;;;;;2.12;95.52;101931.78;5095266;28;20199;-79
2022/11/13 06:46:18;;;;;;;6.40;4.40;;;;;;;2.11;95.64;101934.44;5094806;28;20211;-79
2022/11/13 06:48:45;;;;;;;6.47;4.47;;;;;;;2.09;95.19;101935.31;5097195;28;20211;-79
2022/11/13 06:51:14;;;;;;;5.63;4.40;;;;;;;2.08;94.88;101937.94;5088168;28;20221;-79
2022/11/13 06:53:41;;;;;;;5.43;4.70;;;;;;;2.06;95.34;101939.72;5092716;28;20208;-79
2022/11/13 06:56:08;;;;;;;4.97;4.50;;;;;;;2.06;94.71;101940.59;5094693;28;20566;-79
2022/11/13 06:58:34;;;;;;;5.43;4.70;;;;;;;2.06;95.60;101939.72;5097292;28;20206;-79
2022/11/13 07:01:06;;;;;;;5.60;4.53;;;;;;;2.07;95.37;101949.34;5093078;28;20220;-79
2022/11/13 07:03:33;;;;;;;5.30;4.50;;;;;;;2.06;94.94;101951.09;5093041;28;20765;-79
2022/11/13 07:06:01;;;;;;;7.07;5.00;;;;;;;2.07;95.34;101947.59;5092562;28;20624;-79
2022/11/13 07:08:28;;;;;;;6.37;5.37;;;;;;;2.07;94.85;101946.72;5092731;28;20812;-79
2022/11/13 07:10:56;;;;;;;6.00;5.33;;;;;;;2.04;95.23;101950.22;5089959;28;20594;-79
2022/11/13 07:13:23;;;;;;;7.60;5.90;;;;;;;2.03;94.67;101951.09;5098934;28;20215;-79
2022/11/13 07:15:50;;;;;;;6.10;5.30;;;;;;;2.02;94.50;101953.75;5087462;28;20213;-79
2022/11/13 07:18:17;;;;;;;7.63;6.57;;;;;;;2.02;95.14;101948.50;5093656;28;20215;-78
2022/11/13 07:20:44;;;;;;;8.40;7.07;;;;;;;2.02;94.92;101946.75;5082517;28;20242;-79
2022/11/13 07:23:11;;;;;;;11.97;9.73;;;;;;;2.06;94.78;101939.72;5083942;28;20669;-79
2022/11/13 07:25:37;;;;;;;12.83;9.87;;;;;;;2.06;95.36;101951.09;5085684;28;20212;-78
2022/11/13 07:28:04;;;;;;;8.73;7.07;;;;;;;2.08;94.94;101954.59;5081380;28;20197;-79
2022/11/13 07:30:30;;;;;;;7.93;6.43;;;;;;;2.09;94.96;101950.19;5086345;28;20225;-78
2022/11/13 07:33:02;;;;;;;8.07;7.27;;;;;;;2.08;95.10;101954.59;5088468;28;20251;-78
2022/11/13 07:35:29;;;;;;;7.10;6.07;;;;;;;2.09;95.28;101958.09;5084478;28;20670;-78
2022/11/13 07:37:56;;;;;;;7.43;6.13;;;;;;;2.10;95.39;101957.19;5093204;28;20223;-79
2022/11/13 07:40:23;;;;;;;10.07;5.77;;;;;;;2.11;95.58;101952.81;5094266;28;20228;-79
2022/11/13 07:42:58;;;;;;;7.53;6.00;;;;;;;2.13;95.39;101945.81;5094485;28;20591;-80
2022/11/13 07:45:24;;;;;;;7.03;5.63;;;;;;;2.15;95.61;101950.13;5087606;28;20253;-79
2022/11/13 07:47:51;;;;;;;6.77;4.97;;;;;;;2.18;95.96;101944.84;5084085;28;20714;-80
2022/11/13 07:50:18;;;;;;;8.30;5.80;;;;;;;2.23;96.15;101942.19;5089657;28;20593;-80
2022/11/13 07:52:45;;;;;;;7.00;6.30;;;;;;;2.26;96.16;101943.06;5081248;28;20204;-80
2022/11/13 07:55:12;;;;;;;6.57;5.83;;;;;;;2.31;95.82;101945.66;5085806;28;20232;-80
2022/11/13 07:57:38;;;;;;;8.27;5.90;;;;;;;2.36;96.35;101952.59;5083014;28;20201;-80
2022/11/13 08:00:06;;;;;;;9.90;6.23;;;;;;;2.41;96.79;101947.28;5086857;28;20227;-79
2022/11/13 08:02:32;;;;;;;11.93;8.30;;;;;;;2.47;96.97;101944.63;5087844;28;20204;-79
2022/11/13 08:04:59;;;;;;;13.03;9.23;;;;;;;2.53;96.77;101952.44;5084692;28;20205;-80
2022/11/13 08:07:25;;;;;;;13.87;10.40;;;;;;;2.60;96.67;101943.59;5091278;28;20212;-80
2022/11/13 08:09:53;;;;;;;11.80;8.90;;;;;;;2.67;97.00;101936.53;5088941;28;20224;-79
2022/11/13 08:12:19;;;;;;;10.13;8.70;;;;;;;2.73;97.94;101932.06;5084450;28;20573;-79
2022/11/13 08:14:46;;;;;;;10.90;8.37;;;;;;;2.79;97.95;101926.75;5086522;28;20651;-79
2022/11/13 08:17:12;;;;;;;10.27;8.37;;;;;;;2.85;98.26;101924.94;5083817;28;20204;-80
2022/11/13 08:19:39;;;;;;;10.47;8.50;;;;;;;2.93;97.78;101928.34;5088540;28;20204;-80
2022/11/13 08:22:05;;;;;;;9.40;8.37;;;;;;;3.01;97.47;101929.13;5081704;28;20232;-80
2022/11/13 08:24:32;;;;;;;11.03;8.73;;;;;;;3.10;98.17;101937.78;5086192;28;20204;-80
2022/11/13 08:27:00;;;;;;;10.60;8.30;;;;;;;3.18;98.57;101929.81;5084848;28;20735;-80
2022/11/13 08:29:26;;;;;;;8.93;7.70;;;;;;;3.29;97.95;101935.78;5082954;28;20219;-80
2022/11/13 08:31:53;;;;;;;8.97;7.30;;;;;;;3.39;98.59;101942.69;5082075;28;20223;-80
2022/11/13 08:34:19;;;;;;;8.60;6.97;;;;;;;3.49;98.44;101943.44;5088502;28;20227;-81
2022/11/13 08:36:47;;;;;;;9.17;7.30;;;;;;;3.60;98.27;101940.63;5086165;28;20254;-79
2022/11/13 08:39:14;;;;;;;7.77;6.77;;;;;;;3.71;98.86;101944.88;5085759;28;20208;-79
2022/11/13 08:41:40;;;;;;;7.87;6.47;;;;;;;3.81;98.14;101941.19;5085913;28;20220;-80
2022/11/13 08:44:09;;;;;;;9.07;6.03;;;;;;;3.91;98.22;101938.44;5087853;28;20204;-80
2022/11/13 08:46:35;;;;;;;9.53;6.27;;;;;;;4.00;97.81;101941.78;5083620;28;20227;-80
2022/11/13 08:49:02;;;;;;;6.57;5.97;;;;;;;4.10;97.61;101942.53;5087040;28;20208;-80
2022/11/13 08:51:28;;;;;;;7.03;5.63;;;;;;;4.19;97.04;101931.81;5089185;28;20220;-80
2022/11/13 08:53:55;;;;;;;7.53;5.77;;;;;;;4.29;96.25;101935.19;5090994;28;20216;-79
2022/11/13 08:56:21;;;;;;;7.60;5.90;;;;;;;4.39;95.31;101931.50;5089250;28;20208;-80
2022/11/13 08:58:48;;;;;;;6.50;5.63;;;;;;;4.50;94.51;101940.06;5086130;28;20215;-80
2022/11/13 09:01:16;;;;;;;7.53;6.70;;;;;;;4.59;93.96;101929.38;5088539;28;20224;-80
2022/11/13 09:03:42;;;;;;;9.20;7.10;;;;;;;4.70;93.66;101929.16;5074784;28;20274;-80
2022/11/13 09:06:09;;;;;;;7.77;6.93;;;;;;;4.81;92.75;101930.72;5089077;28;20208;-79
2022/11/13 09:08:36;;;;;;;8.90;7.60;;;;;;;4.92;91.54;101929.63;5076656;28;20228;-80
2022/11/13 09:11:04;;;;;;;8.83;7.50;;;;;;;4.97;91.13;101928.66;5084836;28;21339;-80
2022/11/13 09:13:31;;;;;;;9.43;7.83;;;;;;;5.05;90.69;101926.69;5084964;28;20214;-80
2022/11/13 09:15:58;;;;;;;10.83;8.53;;;;;;;5.11;90.56;101926.59;5090253;28;20210;-78
2022/11/13 09:18:26;;;;;;;10.57;8.60;;;;;;;5.19;90.14;101931.72;5095185;28;20599;-78
2022/11/13 09:20:53;;;;;;;11.33;8.90;;;;;;;5.26;89.89;101930.69;5099609;28;20574;-79
2022/11/13 09:23:20;;;;;;;10.37;9.23;;;;;;;5.34;90.03;101928.75;5087540;28;20200;-79
2022/11/13 09:25:46;;;;;;;10.43;9.40;;;;;;;5.44;89.81;101939.97;5104121;28;20203;-79
2022/11/13 09:28:13;;;;;;;12.00;10.53;;;;;;;5.53;89.82;101929.22;5103241;28;20203;-79
2022/11/13 09:30:40;;;;;;;13.57;10.47;;;;;;;5.63;90.21;101928.09;5092830;28;20589;-79
2022/11/13 09:33:07;;;;;;;14.37;11.67;;;;;;;5.73;90.33;101932.25;5086297;28;20215;-80
2022/11/13 09:35:34;;;;;;;15.03;12.53;;;;;;;5.84;90.45;101924.09;5083078;28;20295;-79
2022/11/13 09:38:01;;;;;;;16.60;13.10;;;;;;;5.96;91.13;101918.53;5094467;28;20202;-79
2022/11/13 09:40:32;;;;;;;16.90;14.27;;;;;;;6.08;91.25;101922.69;5094086;28;20227;-79
2022/11/13 09:43:00;;;;;;;18.10;14.37;;;;;;;6.19;91.45;101918.00;5084569;28;20204;-79
2022/11/13 09:45:27;;;;;;;17.13;14.00;;;;;;;6.26;91.47;101923.09;5093707;28;20213;-79
2022/11/13 09:47:56;;;;;;;17.57;14.53;;;;;;;6.35;91.50;101923.75;5092295;28;20546;-80
2022/11/13 09:50:26;;;;;;;15.37;13.40;;;;;;;6.42;91.42;101909.47;5096999;28;20229;-79
2022/11/13 09:52:54;;;;;;;15.73;14.03;;;;;;;6.47;91.38;101900.47;5110614;28;20208;-80
2022/11/13 09:55:25;;;;;;;17.80;13.60;;;;;;;6.52;91.55;101895.94;5100318;28;20206;-80
2022/11/13 09:57:59;;;;;;;15.93;13.23;;;;;;;6.58;91.24;101897.56;5102213;28;20203;-78
2022/11/13 10:00:28;;;;;;;16.33;13.33;;;;;;;6.65;91.03;101893.81;5109324;28;20246;-79
2022/11/13 10:03:07;;;;;;;15.17;13.50;;;;;;;6.70;91.32;101889.28;5101389;28;20578;-81
2022/11/13 10:05:43;;;;;;;22.03;13.60;;;;;;;6.75;90.46;101891.81;5067123;28;1031639;-78
2022/11/13 10:08:18;;;;;;;17.23;13.30;;;;;;;6.78;90.88;101879.38;5088850;28;20206;-82
2022/11/13 10:10:50;;;;;;;15.07;13.43;;;;;;;6.83;90.80;101881.84;5079358;28;20228;-79
2022/11/13 10:13:21;;;;;;;13.57;12.17;;;;;;;6.86;90.28;101882.66;5071832;28;20185;-79
2022/11/13 10:15:52;;;;;;;16.93;13.40;;;;;;;6.90;90.13;101876.34;5071968;28;20189;-80
2022/11/13 10:18:22;;;;;;;16.07;13.50;;;;;;;6.93;90.04;101872.75;5071545;28;20247;-80
2022/11/13 10:20:53;;;;;;;19.00;15.17;;;;;;;6.95;89.95;101868.28;5072279;28;20479;-80
2022/11/13 10:23:24;;;;;;;15.23;13.70;;;;;;;6.97;89.72;101875.28;5070969;28;20632;-80
2022/11/13 10:25:51;;;;;;;17.20;14.37;;;;;;;6.99;89.19;101877.03;5070213;28;20731;-80
2022/11/13 10:28:21;;;;;;;18.23;15.40;;;;;;;6.95;88.54;101869.16;5070472;28;20212;-80
2022/11/13 10:30:48;;;;;;;17.03;14.53;;;;;;;6.95;88.51;101878.88;5071075;28;20232;-77
2022/11/13 10:33:18;;;;;;;17.67;14.90;;;;;;;6.93;88.22;101878.91;5070825;28;20208;-79
2022/11/13 10:35:51;;;;;;;18.67;14.17;;;;;;;6.93;88.50;101876.28;5071093;28;20208;-78
2022/11/13 10:38:27;;;;;;;23.53;17.57;;;;;;;6.91;88.45;101864.00;5071816;28;20200;-78
2022/11/13 10:41:08;;;;;;;24.73;18.87;;;;;;;6.90;87.80;101876.34;5072229;28;20224;-77
2022/11/13 10:43:35;;;;;;;26.20;19.40;;;;;;;6.86;87.42;101877.34;5071993;28;20758;-78
2022/11/13 10:46:06;;;;;;;26.10;20.00;;;;;;;6.84;87.43;101875.66;5071589;28;20291;-78
2022/11/13 10:48:34;;;;;;;30.90;20.43;;;;;;;6.83;87.90;101874.78;5072228;28;20573;-79
2022/11/13 10:51:03;;;;;;;31.50;21.10;;;;;;;6.81;87.85;101871.31;5072281;28;20232;-78
2022/11/13 10:53:39;;;;;;;28.73;20.47;;;;;;;6.79;87.66;101864.34;5071554;28;20201;-79
2022/11/13 10:56:20;;;;;;;29.50;20.17;;;;;;;6.78;87.95;101867.91;5075462;28;20544;-78
2022/11/13 10:59:00;;;;;;;27.90;19.83;;;;;;;6.79;88.41;101867.00;5081927;28;20271;-82
2022/11/13 11:01:26;;;;;;;27.50;19.43;;;;;;;6.79;88.34;101865.22;5107930;28;20220;-84
2022/11/13 11:03:53;;;;;;;25.97;18.97;;;;;;;6.80;88.54;101855.50;5101308;28;20196;-84
2022/11/13 11:06:19;;;;;;;31.07;20.60;;;;;;;6.80;88.71;101851.06;5100734;28;20208;-83
2022/11/13 11:08:48;;;;;;;28.10;19.40;;;;;;;6.81;88.70;101852.78;5091716;28;20220;-83
2022/11/13 11:14:13;;;;;;;21.77;17.70;;;;;;;6.78;88.66;101849.38;5099075;28;20824;-84
2022/11/13 11:16:40;;;;;;;23.47;17.80;;;;;;;6.77;89.34;101840.56;5076934;28;20201;-81
2022/11/13 11:19:10;;;;;;;24.47;17.17;;;;;;;6.77;89.66;101843.22;5098549;28;20204;-85
2022/11/13 11:21:41;;;;;;;25.47;18.60;;;;;;;6.78;89.77;101833.47;5088796;28;20232;-84
2022/11/13 11:24:13;;;;;;;23.53;18.47;;;;;;;6.77;89.88;101827.31;5101119;28;20208;-84
2022/11/13 11:26:45;;;;;;;24.70;18.10;;;;;;;6.80;90.26;101834.31;5100111;28;20219;-84
2022/11/13 11:29:18;;;;;;;29.33;19.10;;;;;;;6.80;90.31;101832.53;5117591;28;20203;-85
2022/11/13 11:31:51;;;;;;;25.60;18.53;;;;;;;6.82;90.35;101833.31;5102257;28;20231;-83
2022/11/13 11:34:24;;;;;;;24.97;17.57;;;;;;;6.84;90.27;101831.50;5106888;28;20654;-84
2022/11/13 11:36:58;;;;;;;26.00;19.53;;;;;;;6.86;90.45;101828.81;5108063;28;20741;-84